sensor_id;sensor_type;location;lat;lon;timestamp;temperature;humidity
4366;DHT22;2196;47.422;9.656;2023-09-19T00:00:00;16.60;99.90
4366;DHT22;2196;47.422;9.656;2023-09-19T00:02:27;16.60;99.90
4366;DHT22;2196;47.422;9.656;2023-09-19T00:04:55;16.60;99.90
4366;DHT22;2196;47.422;9.656;2023-09-19T00:07:21;16.60;99.90
4366;DHT22;2196;47.422;9.656;2023-09-19T00:09:48;16.60;99.90
4366;DHT22;2196;47.422;9.656;2023-09-19T00:12:15;16.60;99.90
4366;DHT22;2196;47.422;9.656;2023-09-19T00:14:43;16.60;99.90
4366;DHT22;2196;47.422;9.656;2023-09-19T00:17:12;16.60;99.90
4366;DHT22;2196;47.422;9.656;2023-09-19T00:19:38;16.50;99.90
4366;DHT22;2196;47.422;9.656;2023-09-19T00:22:08;16.50;99.90
4366;DHT22;2196;47.422;9.656;2023-09-19T00:24:35;16.50;99.90
4366;DHT22;2196;47.422;9.656;2023-09-19T00:27:02;16.50;99.90
4366;DHT22;2196;47.422;9.656;2023-09-19T00:29:31;16.40;99.90
4366;DHT22;2196;47.422;9.656;2023-09-19T00:31:58;16.50;99.90
4366;DHT22;2196;47.422;9.656;2023-09-19T00:34:27;16.40;99.90
4366;DHT22;2196;47.422;9.656;2023-09-19T00:36:55;16.40;99.90
4366;DHT22;2196;47.422;9.656;2023-09-19T00:39:22;16.50;99.90
4366;DHT22;2196;47.422;9.656;2023-09-19T00:41:51;16.40;99.90
4366;DHT22;2196;47.422;9.656;2023-09-19T00:44:22;16.30;99.90
4366;DHT22;2196;47.422;9.656;2023-09-19T00:46:49;16.30;99.90
4366;DHT22;2196;47.422;9.656;2023-09-19T00:49:16;16.20;99.90
4366;DHT22;2196;47.422;9.656;2023-09-19T00:51:47;16.20;99.90
4366;DHT22;2196;47.422;9.656;2023-09-19T00:54:15;16.20;99.90
4366;DHT22;2196;47.422;9.656;2023-09-19T00:56:48;16.20;99.90
4366;DHT22;2196;47.422;9.656;2023-09-19T00:59:16;16.20;99.90
4366;DHT22;2196;47.422;9.656;2023-09-19T01:01:43;16.10;99.90
4366;DHT22;2196;47.422;9.656;2023-09-19T01:04:11;16.20;99.90
4366;DHT22;2196;47.422;9.656;2023-09-19T01:06:39;16.20;99.90
4366;DHT22;2196;47.422;9.656;2023-09-19T01:09:08;16.20;99.90
4366;DHT22;2196;47.422;9.656;2023-09-19T01:11:42;16.10;99.90
4366;DHT22;2196;47.422;9.656;2023-09-19T01:14:29;16.20;99.90
4366;DHT22;2196;47.422;9.656;2023-09-19T01:17:04;16.20;99.90
4366;DHT22;2196;47.422;9.656;2023-09-19T01:20:21;16.20;99.90
4366;DHT22;2196;47.422;9.656;2023-09-19T01:23:05;16.20;99.90
4366;DHT22;2196;47.422;9.656;2023-09-19T01:28:51;16.30;99.90
4366;DHT22;2196;47.422;9.656;2023-09-19T01:31:23;16.30;99.90
4366;DHT22;2196;47.422;9.656;2023-09-19T01:33:55;16.30;99.90
4366;DHT22;2196;47.422;9.656;2023-09-19T01:36:28;16.40;99.90
4366;DHT22;2196;47.422;9.656;2023-09-19T01:38:57;16.40;99.90
4366;DHT22;2196;47.422;9.656;2023-09-19T01:41:37;16.30;99.90
4366;DHT22;2196;47.422;9.656;2023-09-19T01:44:09;16.30;99.90
4366;DHT22;2196;47.422;9.656;2023-09-19T01:46:42;16.30;99.90
4366;DHT22;2196;47.422;9.656;2023-09-19T01:49:22;16.30;99.90
4366;DHT22;2196;47.422;9.656;2023-09-19T01:52:02;16.30;99.90
4366;DHT22;2196;47.422;9.656;2023-09-19T01:54:33;16.30;99.90
4366;DHT22;2196;47.422;9.656;2023-09-19T01:57:14;16.40;99.90
4366;DHT22;2196;47.422;9.656;2023-09-19T01:59:47;16.30;99.90
4366;DHT22;2196;47.422;9.656;2023-09-19T02:02:17;16.30;99.90
4366;DHT22;2196;47.422;9.656;2023-09-19T02:04:44;16.30;99.90
4366;DHT22;2196;47.422;9.656;2023-09-19T02:07:11;16.30;99.90
4366;DHT22;2196;47.422;9.656;2023-09-19T02:09:42;16.20;99.90
4366;DHT22;2196;47.422;9.656;2023-09-19T02:12:09;16.30;99.90
4366;DHT22;2196;47.422;9.656;2023-09-19T02:14:36;16.20;99.90
4366;DHT22;2196;47.422;9.656;2023-09-19T02:17:03;16.20;99.90
4366;DHT22;2196;47.422;9.656;2023-09-19T02:19:38;16.20;99.90
4366;DHT22;2196;47.422;9.656;2023-09-19T02:22:07;16.30;99.90
4366;DHT22;2196;47.422;9.656;2023-09-19T02:24:36;16.30;99.90
4366;DHT22;2196;47.422;9.656;2023-09-19T02:27:04;16.30;99.90
4366;DHT22;2196;47.422;9.656;2023-09-19T02:29:31;16.30;99.90
4366;DHT22;2196;47.422;9.656;2023-09-19T02:32:00;16.30;99.90
4366;DHT22;2196;47.422;9.656;2023-09-19T02:34:28;16.30;99.90
4366;DHT22;2196;47.422;9.656;2023-09-19T02:36:56;16.30;99.90
4366;DHT22;2196;47.422;9.656;2023-09-19T02:39:23;16.30;99.90
4366;DHT22;2196;47.422;9.656;2023-09-19T02:41:50;16.30;99.90
4366;DHT22;2196;47.422;9.656;2023-09-19T02:44:17;16.30;99.90
4366;DHT22;2196;47.422;9.656;2023-09-19T02:46:46;16.30;99.90
4366;DHT22;2196;47.422;9.656;2023-09-19T02:49:13;16.30;99.90
4366;DHT22;2196;47.422;9.656;2023-09-19T02:51:40;16.30;99.90
4366;DHT22;2196;47.422;9.656;2023-09-19T02:54:09;16.30;99.90
4366;DHT22;2196;47.422;9.656;2023-09-19T02:56:37;16.30;99.90
4366;DHT22;2196;47.422;9.656;2023-09-19T02:59:05;16.30;99.90
4366;DHT22;2196;47.422;9.656;2023-09-19T03:01:32;16.30;99.90
4366;DHT22;2196;47.422;9.656;2023-09-19T03:03:59;16.30;99.90
4366;DHT22;2196;47.422;9.656;2023-09-19T03:06:26;16.30;99.90
4366;DHT22;2196;47.422;9.656;2023-09-19T03:08:53;16.30;99.90
4366;DHT22;2196;47.422;9.656;2023-09-19T03:11:22;16.30;99.90
4366;DHT22;2196;47.422;9.656;2023-09-19T03:13:53;16.30;99.90
4366;DHT22;2196;47.422;9.656;2023-09-19T03:16:20;16.30;99.90
4366;DHT22;2196;47.422;9.656;2023-09-19T03:18:48;16.30;99.90
4366;DHT22;2196;47.422;9.656;2023-09-19T03:21:15;16.20;99.90
4366;DHT22;2196;47.422;9.656;2023-09-19T03:23:42;16.20;99.90
4366;DHT22;2196;47.422;9.656;2023-09-19T03:26:11;16.20;99.90
4366;DHT22;2196;47.422;9.656;2023-09-19T03:28:41;16.20;99.90
4366;DHT22;2196;47.422;9.656;2023-09-19T03:31:08;16.30;99.90
4366;DHT22;2196;47.422;9.656;2023-09-19T03:33:35;16.30;99.90
4366;DHT22;2196;47.422;9.656;2023-09-19T03:36:03;16.30;99.90
4366;DHT22;2196;47.422;9.656;2023-09-19T03:38:31;16.30;99.90
4366;DHT22;2196;47.422;9.656;2023-09-19T03:40:59;16.30;99.90
4366;DHT22;2196;47.422;9.656;2023-09-19T03:43:26;16.30;99.90
4366;DHT22;2196;47.422;9.656;2023-09-19T03:45:55;16.30;99.90
4366;DHT22;2196;47.422;9.656;2023-09-19T03:48:21;16.30;99.90
4366;DHT22;2196;47.422;9.656;2023-09-19T03:50:48;16.30;99.90
4366;DHT22;2196;47.422;9.656;2023-09-19T03:53:16;16.20;99.90
4366;DHT22;2196;47.422;9.656;2023-09-19T03:55:44;16.30;99.90
4366;DHT22;2196;47.422;9.656;2023-09-19T03:58:12;16.30;99.90
4366;DHT22;2196;47.422;9.656;2023-09-19T04:00:39;16.20;99.90
4366;DHT22;2196;47.422;9.656;2023-09-19T04:03:08;16.30;99.90
4366;DHT22;2196;47.422;9.656;2023-09-19T04:05:36;16.30;99.90
4366;DHT22;2196;47.422;9.656;2023-09-19T04:08:03;16.20;99.90
4366;DHT22;2196;47.422;9.656;2023-09-19T04:10:30;16.20;99.90
4366;DHT22;2196;47.422;9.656;2023-09-19T04:12:57;16.20;99.90
4366;DHT22;2196;47.422;9.656;2023-09-19T04:15:24;16.30;99.90
4366;DHT22;2196;47.422;9.656;2023-09-19T04:17:52;16.20;99.90
4366;DHT22;2196;47.422;9.656;2023-09-19T04:20:20;16.20;99.90
4366;DHT22;2196;47.422;9.656;2023-09-19T04:22:48;16.20;99.90
4366;DHT22;2196;47.422;9.656;2023-09-19T04:25:15;16.20;99.90
4366;DHT22;2196;47.422;9.656;2023-09-19T04:27:44;16.10;99.90
4366;DHT22;2196;47.422;9.656;2023-09-19T04:30:12;16.20;99.90
4366;DHT22;2196;47.422;9.656;2023-09-19T04:32:40;16.10;99.90
4366;DHT22;2196;47.422;9.656;2023-09-19T04:35:08;16.10;99.90
4366;DHT22;2196;47.422;9.656;2023-09-19T04:37:40;16.20;99.90
4366;DHT22;2196;47.422;9.656;2023-09-19T04:40:08;16.30;99.90
4366;DHT22;2196;47.422;9.656;2023-09-19T04:42:40;16.20;99.90
4366;DHT22;2196;47.422;9.656;2023-09-19T04:45:08;16.20;99.90
4366;DHT22;2196;47.422;9.656;2023-09-19T04:47:36;16.20;99.90
4366;DHT22;2196;47.422;9.656;2023-09-19T04:50:08;16.10;99.90
4366;DHT22;2196;47.422;9.656;2023-09-19T04:52:41;16.10;99.90
4366;DHT22;2196;47.422;9.656;2023-09-19T04:55:10;16.10;99.90
4366;DHT22;2196;47.422;9.656;2023-09-19T04:57:43;16.20;99.90
4366;DHT22;2196;47.422;9.656;2023-09-19T05:00:12;16.10;99.90
4366;DHT22;2196;47.422;9.656;2023-09-19T05:02:40;16.10;99.90
4366;DHT22;2196;47.422;9.656;2023-09-19T05:05:08;16.10;99.90
4366;DHT22;2196;47.422;9.656;2023-09-19T05:07:35;16.10;99.90
4366;DHT22;2196;47.422;9.656;2023-09-19T05:10:04;16.10;99.90
4366;DHT22;2196;47.422;9.656;2023-09-19T05:12:33;16.10;99.90
4366;DHT22;2196;47.422;9.656;2023-09-19T05:15:01;16.20;99.90
4366;DHT22;2196;47.422;9.656;2023-09-19T05:17:28;16.20;99.90
4366;DHT22;2196;47.422;9.656;2023-09-19T05:19:55;16.10;99.90
4366;DHT22;2196;47.422;9.656;2023-09-19T05:22:22;16.10;99.90
4366;DHT22;2196;47.422;9.656;2023-09-19T05:24:50;16.20;99.90
4366;DHT22;2196;47.422;9.656;2023-09-19T05:27:19;16.10;99.90
4366;DHT22;2196;47.422;9.656;2023-09-19T05:29:47;16.20;99.90
4366;DHT22;2196;47.422;9.656;2023-09-19T05:32:16;16.20;99.90
4366;DHT22;2196;47.422;9.656;2023-09-19T05:34:45;16.20;99.90
4366;DHT22;2196;47.422;9.656;2023-09-19T05:37:13;16.20;99.90
4366;DHT22;2196;47.422;9.656;2023-09-19T05:39:41;16.30;99.90
4366;DHT22;2196;47.422;9.656;2023-09-19T05:42:08;16.30;99.90
4366;DHT22;2196;47.422;9.656;2023-09-19T05:44:37;16.40;99.90
4366;DHT22;2196;47.422;9.656;2023-09-19T05:47:04;16.30;99.90
4366;DHT22;2196;47.422;9.656;2023-09-19T05:49:31;16.40;99.90
4366;DHT22;2196;47.422;9.656;2023-09-19T05:51:58;16.40;99.90
4366;DHT22;2196;47.422;9.656;2023-09-19T05:54:26;16.40;99.90
4366;DHT22;2196;47.422;9.656;2023-09-19T05:56:53;16.40;99.90
4366;DHT22;2196;47.422;9.656;2023-09-19T05:59:20;16.50;99.90
4366;DHT22;2196;47.422;9.656;2023-09-19T06:01:48;16.50;99.90
4366;DHT22;2196;47.422;9.656;2023-09-19T06:04:15;16.50;99.90
4366;DHT22;2196;47.422;9.656;2023-09-19T06:06:42;16.40;99.90
4366;DHT22;2196;47.422;9.656;2023-09-19T06:09:10;16.50;99.90
4366;DHT22;2196;47.422;9.656;2023-09-19T06:11:37;16.50;99.90
4366;DHT22;2196;47.422;9.656;2023-09-19T06:14:05;16.60;99.90
4366;DHT22;2196;47.422;9.656;2023-09-19T06:16:32;16.50;99.90
4366;DHT22;2196;47.422;9.656;2023-09-19T06:19:00;16.50;99.90
4366;DHT22;2196;47.422;9.656;2023-09-19T06:21:28;16.50;99.90
4366;DHT22;2196;47.422;9.656;2023-09-19T06:23:55;16.50;99.90
4366;DHT22;2196;47.422;9.656;2023-09-19T06:26:23;16.60;99.90
4366;DHT22;2196;47.422;9.656;2023-09-19T06:28:52;16.60;99.90
4366;DHT22;2196;47.422;9.656;2023-09-19T06:31:21;16.60;99.90
4366;DHT22;2196;47.422;9.656;2023-09-19T06:33:51;16.60;99.90
4366;DHT22;2196;47.422;9.656;2023-09-19T06:36:20;16.70;99.90
4366;DHT22;2196;47.422;9.656;2023-09-19T06:38:47;16.80;99.90
4366;DHT22;2196;47.422;9.656;2023-09-19T06:41:16;16.80;99.90
4366;DHT22;2196;47.422;9.656;2023-09-19T06:43:43;16.90;99.90
4366;DHT22;2196;47.422;9.656;2023-09-19T06:46:11;16.90;99.90
4366;DHT22;2196;47.422;9.656;2023-09-19T06:48:38;16.80;99.90
4366;DHT22;2196;47.422;9.656;2023-09-19T06:51:05;16.90;99.90
4366;DHT22;2196;47.422;9.656;2023-09-19T06:53:34;16.90;99.90
4366;DHT22;2196;47.422;9.656;2023-09-19T06:56:01;16.90;99.90
4366;DHT22;2196;47.422;9.656;2023-09-19T06:58:29;16.80;99.90
4366;DHT22;2196;47.422;9.656;2023-09-19T07:00:57;16.80;99.90
4366;DHT22;2196;47.422;9.656;2023-09-19T07:03:24;16.80;99.90
4366;DHT22;2196;47.422;9.656;2023-09-19T07:05:52;16.90;99.90
4366;DHT22;2196;47.422;9.656;2023-09-19T07:08:21;16.90;99.90
4366;DHT22;2196;47.422;9.656;2023-09-19T07:10:50;17.10;99.90
4366;DHT22;2196;47.422;9.656;2023-09-19T07:13:19;17.10;99.90
4366;DHT22;2196;47.422;9.656;2023-09-19T07:15:46;17.10;99.90
4366;DHT22;2196;47.422;9.656;2023-09-19T07:18:16;17.10;99.90
4366;DHT22;2196;47.422;9.656;2023-09-19T07:20:43;17.10;99.90
4366;DHT22;2196;47.422;9.656;2023-09-19T07:23:14;16.90;99.90
4366;DHT22;2196;47.422;9.656;2023-09-19T07:25:42;17.00;99.90
4366;DHT22;2196;47.422;9.656;2023-09-19T07:28:10;17.00;99.90
4366;DHT22;2196;47.422;9.656;2023-09-19T07:30:37;17.20;99.90
4366;DHT22;2196;47.422;9.656;2023-09-19T07:33:04;17.40;99.90
4366;DHT22;2196;47.422;9.656;2023-09-19T07:35:32;17.60;99.90
4366;DHT22;2196;47.422;9.656;2023-09-19T07:37:59;17.80;99.90
4366;DHT22;2196;47.422;9.656;2023-09-19T07:40:27;18.00;99.90
4366;DHT22;2196;47.422;9.656;2023-09-19T07:42:54;18.00;99.90
4366;DHT22;2196;47.422;9.656;2023-09-19T07:45:23;18.00;99.90
4366;DHT22;2196;47.422;9.656;2023-09-19T07:47:51;17.90;99.90
4366;DHT22;2196;47.422;9.656;2023-09-19T07:50:19;18.00;99.90
4366;DHT22;2196;47.422;9.656;2023-09-19T07:52:46;18.00;99.90
4366;DHT22;2196;47.422;9.656;2023-09-19T07:55:14;18.00;99.90
4366;DHT22;2196;47.422;9.656;2023-09-19T07:57:43;17.90;99.90
4366;DHT22;2196;47.422;9.656;2023-09-19T08:00:11;17.90;99.90
4366;DHT22;2196;47.422;9.656;2023-09-19T08:02:40;17.80;99.90
4366;DHT22;2196;47.422;9.656;2023-09-19T08:05:08;17.80;99.90
4366;DHT22;2196;47.422;9.656;2023-09-19T08:07:37;17.80;99.90
4366;DHT22;2196;47.422;9.656;2023-09-19T08:10:04;18.00;99.90
4366;DHT22;2196;47.422;9.656;2023-09-19T08:12:33;18.20;99.90
4366;DHT22;2196;47.422;9.656;2023-09-19T08:15:01;18.30;99.90
4366;DHT22;2196;47.422;9.656;2023-09-19T08:17:28;18.40;99.90
4366;DHT22;2196;47.422;9.656;2023-09-19T08:19:56;18.50;99.90
4366;DHT22;2196;47.422;9.656;2023-09-19T08:22:23;18.50;99.90
4366;DHT22;2196;47.422;9.656;2023-09-19T08:24:50;18.70;99.90
4366;DHT22;2196;47.422;9.656;2023-09-19T08:27:17;18.70;99.90
4366;DHT22;2196;47.422;9.656;2023-09-19T08:29:45;18.90;99.90
4366;DHT22;2196;47.422;9.656;2023-09-19T08:32:12;19.00;99.90
4366;DHT22;2196;47.422;9.656;2023-09-19T08:34:40;19.70;99.90
4366;DHT22;2196;47.422;9.656;2023-09-19T08:37:08;20.20;99.90
4366;DHT22;2196;47.422;9.656;2023-09-19T08:39:36;20.40;99.90
4366;DHT22;2196;47.422;9.656;2023-09-19T08:42:03;20.70;99.90
4366;DHT22;2196;47.422;9.656;2023-09-19T08:44:36;20.90;99.90
4366;DHT22;2196;47.422;9.656;2023-09-19T08:47:09;21.10;99.90
4366;DHT22;2196;47.422;9.656;2023-09-19T08:49:47;21.40;99.90
4366;DHT22;2196;47.422;9.656;2023-09-19T08:52:25;21.90;99.90
4366;DHT22;2196;47.422;9.656;2023-09-19T08:54:52;21.80;99.90
4366;DHT22;2196;47.422;9.656;2023-09-19T08:57:29;21.60;99.90
4366;DHT22;2196;47.422;9.656;2023-09-19T08:59:57;21.40;99.90
4366;DHT22;2196;47.422;9.656;2023-09-19T09:02:26;21.20;99.90
4366;DHT22;2196;47.422;9.656;2023-09-19T09:04:55;20.90;99.90
4366;DHT22;2196;47.422;9.656;2023-09-19T09:07:24;20.80;99.90
4366;DHT22;2196;47.422;9.656;2023-09-19T09:09:53;20.50;99.90
4366;DHT22;2196;47.422;9.656;2023-09-19T09:12:20;20.20;99.90
4366;DHT22;2196;47.422;9.656;2023-09-19T09:14:47;19.90;99.90
4366;DHT22;2196;47.422;9.656;2023-09-19T09:17:15;19.90;99.90
4366;DHT22;2196;47.422;9.656;2023-09-19T09:19:46;19.80;99.90
4366;DHT22;2196;47.422;9.656;2023-09-19T09:22:13;19.50;99.90
4366;DHT22;2196;47.422;9.656;2023-09-19T09:24:53;19.30;99.90
4366;DHT22;2196;47.422;9.656;2023-09-19T09:27:23;19.30;99.90
4366;DHT22;2196;47.422;9.656;2023-09-19T09:29:52;19.30;99.90
4366;DHT22;2196;47.422;9.656;2023-09-19T09:32:22;19.20;99.90
4366;DHT22;2196;47.422;9.656;2023-09-19T09:34:51;19.20;99.90
4366;DHT22;2196;47.422;9.656;2023-09-19T09:37:19;19.20;99.90
4366;DHT22;2196;47.422;9.656;2023-09-19T09:39:51;19.10;99.90
4366;DHT22;2196;47.422;9.656;2023-09-19T09:42:32;18.90;99.90
4366;DHT22;2196;47.422;9.656;2023-09-19T09:45:14;18.80;99.90
4366;DHT22;2196;47.422;9.656;2023-09-19T09:47:42;18.90;99.90
4366;DHT22;2196;47.422;9.656;2023-09-19T09:50:26;18.90;99.90
4366;DHT22;2196;47.422;9.656;2023-09-19T09:53:04;18.70;99.90
4366;DHT22;2196;47.422;9.656;2023-09-19T09:55:57;18.80;99.90
4366;DHT22;2196;47.422;9.656;2023-09-19T09:58:25;18.90;99.90
4366;DHT22;2196;47.422;9.656;2023-09-19T10:00:55;19.20;99.90
4366;DHT22;2196;47.422;9.656;2023-09-19T10:03:32;19.60;99.90
4366;DHT22;2196;47.422;9.656;2023-09-19T10:06:05;19.80;99.90
4366;DHT22;2196;47.422;9.656;2023-09-19T10:08:58;20.10;99.90
4366;DHT22;2196;47.422;9.656;2023-09-19T10:11:33;20.30;99.90
4366;DHT22;2196;47.422;9.656;2023-09-19T10:14:06;20.40;99.90
4366;DHT22;2196;47.422;9.656;2023-09-19T10:16:35;20.60;99.90
4366;DHT22;2196;47.422;9.656;2023-09-19T10:19:07;20.80;99.90
4366;DHT22;2196;47.422;9.656;2023-09-19T10:21:36;21.40;99.90
4366;DHT22;2196;47.422;9.656;2023-09-19T10:24:05;22.20;99.90
4366;DHT22;2196;47.422;9.656;2023-09-19T10:26:36;23.00;99.90
4366;DHT22;2196;47.422;9.656;2023-09-19T10:29:07;24.00;99.90
4366;DHT22;2196;47.422;9.656;2023-09-19T10:31:37;24.70;99.90
4366;DHT22;2196;47.422;9.656;2023-09-19T10:34:07;24.60;99.90
4366;DHT22;2196;47.422;9.656;2023-09-19T10:36:36;25.00;99.90
4366;DHT22;2196;47.422;9.656;2023-09-19T10:39:05;25.00;99.90
4366;DHT22;2196;47.422;9.656;2023-09-19T10:41:36;24.90;99.90
4366;DHT22;2196;47.422;9.656;2023-09-19T10:44:04;24.60;99.90
4366;DHT22;2196;47.422;9.656;2023-09-19T10:46:31;24.30;99.90
4366;DHT22;2196;47.422;9.656;2023-09-19T10:48:59;24.40;99.90
4366;DHT22;2196;47.422;9.656;2023-09-19T10:51:31;24.20;99.90
4366;DHT22;2196;47.422;9.656;2023-09-19T10:54:07;24.00;99.90
4366;DHT22;2196;47.422;9.656;2023-09-19T10:56:42;24.00;99.90
4366;DHT22;2196;47.422;9.656;2023-09-19T10:59:13;24.00;99.90
4366;DHT22;2196;47.422;9.656;2023-09-19T11:01:42;23.80;99.90
4366;DHT22;2196;47.422;9.656;2023-09-19T11:04:25;23.40;99.90
4366;DHT22;2196;47.422;9.656;2023-09-19T11:07:03;23.50;99.90
4366;DHT22;2196;47.422;9.656;2023-09-19T11:09:44;23.50;99.90
4366;DHT22;2196;47.422;9.656;2023-09-19T11:12:49;23.70;99.90
4366;DHT22;2196;47.422;9.656;2023-09-19T11:18:51;24.20;99.90
4366;DHT22;2196;47.422;9.656;2023-09-19T11:21:53;24.10;99.90
4366;DHT22;2196;47.422;9.656;2023-09-19T11:24:33;24.00;99.90
4366;DHT22;2196;47.422;9.656;2023-09-19T11:27:15;23.80;99.90
4366;DHT22;2196;47.422;9.656;2023-09-19T11:29:44;23.90;99.90
4366;DHT22;2196;47.422;9.656;2023-09-19T11:32:12;23.80;99.90
4366;DHT22;2196;47.422;9.656;2023-09-19T11:34:44;23.70;99.90
4366;DHT22;2196;47.422;9.656;2023-09-19T11:40:28;23.40;99.90
4366;DHT22;2196;47.422;9.656;2023-09-19T11:42:57;23.50;99.90
4366;DHT22;2196;47.422;9.656;2023-09-19T11:46:06;23.80;99.90
4366;DHT22;2196;47.422;9.656;2023-09-19T11:48:35;23.70;99.90
4366;DHT22;2196;47.422;9.656;2023-09-19T11:51:11;23.80;99.90
4366;DHT22;2196;47.422;9.656;2023-09-19T11:53:45;23.70;99.90
4366;DHT22;2196;47.422;9.656;2023-09-19T11:56:14;23.50;99.90
4366;DHT22;2196;47.422;9.656;2023-09-19T11:58:44;23.30;99.90
4366;DHT22;2196;47.422;9.656;2023-09-19T12:01:20;23.10;99.90
4366;DHT22;2196;47.422;9.656;2023-09-19T12:03:53;23.10;99.90
4366;DHT22;2196;47.422;9.656;2023-09-19T12:06:20;23.20;99.90
4366;DHT22;2196;47.422;9.656;2023-09-19T12:08:48;23.30;99.90
4366;DHT22;2196;47.422;9.656;2023-09-19T12:11:17;23.30;99.90
4366;DHT22;2196;47.422;9.656;2023-09-19T12:13:48;23.40;99.90
4366;DHT22;2196;47.422;9.656;2023-09-19T12:16:17;23.40;99.90
4366;DHT22;2196;47.422;9.656;2023-09-19T12:18:47;23.60;99.90
4366;DHT22;2196;47.422;9.656;2023-09-19T12:21:23;23.80;99.90
4366;DHT22;2196;47.422;9.656;2023-09-19T12:23:58;23.90;99.90
4366;DHT22;2196;47.422;9.656;2023-09-19T12:26:26;24.00;99.90
4366;DHT22;2196;47.422;9.656;2023-09-19T12:28:55;24.00;99.90
4366;DHT22;2196;47.422;9.656;2023-09-19T12:31:23;23.80;99.90
4366;DHT22;2196;47.422;9.656;2023-09-19T12:33:55;23.60;99.90
4366;DHT22;2196;47.422;9.656;2023-09-19T12:36:23;23.60;99.90
4366;DHT22;2196;47.422;9.656;2023-09-19T12:38:55;23.40;99.90
4366;DHT22;2196;47.422;9.656;2023-09-19T12:41:25;23.20;99.90
4366;DHT22;2196;47.422;9.656;2023-09-19T12:43:52;23.00;99.90
4366;DHT22;2196;47.422;9.656;2023-09-19T12:46:22;23.10;99.90
4366;DHT22;2196;47.422;9.656;2023-09-19T12:49:15;22.80;99.90
4366;DHT22;2196;47.422;9.656;2023-09-19T12:51:44;22.60;99.90
4366;DHT22;2196;47.422;9.656;2023-09-19T12:54:12;22.60;99.90
4366;DHT22;2196;47.422;9.656;2023-09-19T12:56:41;22.40;99.90
4366;DHT22;2196;47.422;9.656;2023-09-19T12:59:12;22.50;99.90
4366;DHT22;2196;47.422;9.656;2023-09-19T13:01:41;22.70;99.90
4366;DHT22;2196;47.422;9.656;2023-09-19T13:04:15;22.70;99.90
4366;DHT22;2196;47.422;9.656;2023-09-19T13:06:52;22.70;99.90
4366;DHT22;2196;47.422;9.656;2023-09-19T13:09:21;22.60;99.90
4366;DHT22;2196;47.422;9.656;2023-09-19T13:12:00;22.40;99.90
4366;DHT22;2196;47.422;9.656;2023-09-19T13:14:28;22.40;99.90
4366;DHT22;2196;47.422;9.656;2023-09-19T13:17:00;22.40;99.90
4366;DHT22;2196;47.422;9.656;2023-09-19T13:19:36;22.50;99.90
4366;DHT22;2196;47.422;9.656;2023-09-19T13:22:03;22.40;99.90
4366;DHT22;2196;47.422;9.656;2023-09-19T13:24:32;22.50;99.90
4366;DHT22;2196;47.422;9.656;2023-09-19T13:27:00;22.50;99.90
4366;DHT22;2196;47.422;9.656;2023-09-19T13:29:29;22.60;99.90
4366;DHT22;2196;47.422;9.656;2023-09-19T13:31:57;22.60;99.90
4366;DHT22;2196;47.422;9.656;2023-09-19T13:34:25;22.50;99.90
4366;DHT22;2196;47.422;9.656;2023-09-19T13:36:52;22.40;99.90
4366;DHT22;2196;47.422;9.656;2023-09-19T13:39:19;22.50;99.90
4366;DHT22;2196;47.422;9.656;2023-09-19T13:41:50;22.50;99.90
4366;DHT22;2196;47.422;9.656;2023-09-19T13:44:17;22.40;99.90
4366;DHT22;2196;47.422;9.656;2023-09-19T13:46:44;22.50;99.90
4366;DHT22;2196;47.422;9.656;2023-09-19T13:49:13;22.50;99.90
4366;DHT22;2196;47.422;9.656;2023-09-19T13:51:40;22.50;99.90
4366;DHT22;2196;47.422;9.656;2023-09-19T13:54:09;22.30;99.90
4366;DHT22;2196;47.422;9.656;2023-09-19T13:56:37;22.20;99.90
4366;DHT22;2196;47.422;9.656;2023-09-19T13:59:04;22.30;99.90
4366;DHT22;2196;47.422;9.656;2023-09-19T14:01:32;22.30;99.90
4366;DHT22;2196;47.422;9.656;2023-09-19T14:03:59;22.30;99.90
4366;DHT22;2196;47.422;9.656;2023-09-19T14:06:27;22.20;99.90
4366;DHT22;2196;47.422;9.656;2023-09-19T14:08:54;22.10;99.90
4366;DHT22;2196;47.422;9.656;2023-09-19T14:11:21;22.10;99.90
4366;DHT22;2196;47.422;9.656;2023-09-19T14:13:48;22.00;99.90
4366;DHT22;2196;47.422;9.656;2023-09-19T14:16:16;22.00;99.90
4366;DHT22;2196;47.422;9.656;2023-09-19T14:18:44;22.00;99.90
4366;DHT22;2196;47.422;9.656;2023-09-19T14:21:12;22.10;99.90
4366;DHT22;2196;47.422;9.656;2023-09-19T14:23:41;22.10;99.90
4366;DHT22;2196;47.422;9.656;2023-09-19T14:26:09;22.10;99.90
4366;DHT22;2196;47.422;9.656;2023-09-19T14:28:36;22.20;99.90
4366;DHT22;2196;47.422;9.656;2023-09-19T14:31:05;22.20;99.90
4366;DHT22;2196;47.422;9.656;2023-09-19T14:33:32;22.10;99.90
4366;DHT22;2196;47.422;9.656;2023-09-19T14:36:02;22.20;99.90
4366;DHT22;2196;47.422;9.656;2023-09-19T14:38:31;22.20;99.90
4366;DHT22;2196;47.422;9.656;2023-09-19T14:41:01;22.20;99.90
4366;DHT22;2196;47.422;9.656;2023-09-19T14:43:28;22.30;99.90
4366;DHT22;2196;47.422;9.656;2023-09-19T14:45:55;22.30;99.90
4366;DHT22;2196;47.422;9.656;2023-09-19T14:48:23;22.30;99.90
4366;DHT22;2196;47.422;9.656;2023-09-19T14:50:51;22.40;99.90
4366;DHT22;2196;47.422;9.656;2023-09-19T14:53:18;22.30;99.90
4366;DHT22;2196;47.422;9.656;2023-09-19T14:55:45;22.30;99.90
4366;DHT22;2196;47.422;9.656;2023-09-19T14:58:14;22.40;99.90
4366;DHT22;2196;47.422;9.656;2023-09-19T15:00:41;22.50;99.90
4366;DHT22;2196;47.422;9.656;2023-09-19T15:03:11;22.40;99.90
4366;DHT22;2196;47.422;9.656;2023-09-19T15:05:39;22.30;99.90
4366;DHT22;2196;47.422;9.656;2023-09-19T15:08:06;22.10;99.90
4366;DHT22;2196;47.422;9.656;2023-09-19T15:10:32;22.10;99.90
4366;DHT22;2196;47.422;9.656;2023-09-19T15:13:00;22.10;99.90
4366;DHT22;2196;47.422;9.656;2023-09-19T15:15:28;22.10;99.90
4366;DHT22;2196;47.422;9.656;2023-09-19T15:17:57;22.10;99.90
4366;DHT22;2196;47.422;9.656;2023-09-19T15:20:24;22.10;99.90
4366;DHT22;2196;47.422;9.656;2023-09-19T15:22:51;22.00;99.90
4366;DHT22;2196;47.422;9.656;2023-09-19T15:25:18;22.10;99.90
4366;DHT22;2196;47.422;9.656;2023-09-19T15:27:45;22.10;99.90
4366;DHT22;2196;47.422;9.656;2023-09-19T15:30:13;22.10;99.90
4366;DHT22;2196;47.422;9.656;2023-09-19T15:32:42;22.00;99.90
4366;DHT22;2196;47.422;9.656;2023-09-19T15:35:09;22.00;99.90
4366;DHT22;2196;47.422;9.656;2023-09-19T15:37:38;22.10;99.90
4366;DHT22;2196;47.422;9.656;2023-09-19T15:40:07;22.00;99.90
4366;DHT22;2196;47.422;9.656;2023-09-19T15:42:36;22.00;99.90
4366;DHT22;2196;47.422;9.656;2023-09-19T15:45:04;22.00;99.90
4366;DHT22;2196;47.422;9.656;2023-09-19T15:47:31;21.90;99.90
4366;DHT22;2196;47.422;9.656;2023-09-19T15:49:59;21.70;99.90
4366;DHT22;2196;47.422;9.656;2023-09-19T15:52:26;21.60;99.90
4366;DHT22;2196;47.422;9.656;2023-09-19T15:54:53;21.60;99.90
4366;DHT22;2196;47.422;9.656;2023-09-19T15:57:20;21.50;99.90
4366;DHT22;2196;47.422;9.656;2023-09-19T15:59:47;21.50;99.90
4366;DHT22;2196;47.422;9.656;2023-09-19T16:02:15;21.40;99.90
4366;DHT22;2196;47.422;9.656;2023-09-19T16:04:43;21.40;99.90
4366;DHT22;2196;47.422;9.656;2023-09-19T16:07:11;21.30;99.90
4366;DHT22;2196;47.422;9.656;2023-09-19T16:09:38;21.30;99.90
4366;DHT22;2196;47.422;9.656;2023-09-19T16:12:06;21.20;99.90
4366;DHT22;2196;47.422;9.656;2023-09-19T16:14:34;21.10;99.90
4366;DHT22;2196;47.422;9.656;2023-09-19T16:17:01;21.10;99.90
4366;DHT22;2196;47.422;9.656;2023-09-19T16:19:28;21.10;99.90
4366;DHT22;2196;47.422;9.656;2023-09-19T16:21:55;21.10;99.90
4366;DHT22;2196;47.422;9.656;2023-09-19T16:24:24;21.10;99.90
4366;DHT22;2196;47.422;9.656;2023-09-19T16:26:51;21.00;99.90